sensor_id;sensor_type;location;lat;lon;timestamp;pressure;altitude;pressure_sealevel;temperature;humidity
64683;BME280;51107;47.652;19.016;2023-02-12T00:01:25;101153.19;;;3.78;88.54
64683;BME280;51107;47.652;19.016;2023-02-12T00:03:56;101162.25;;;3.67;89.41
64683;BME280;51107;47.652;19.016;2023-02-12T00:06:25;101153.06;;;3.62;89.53
64683;BME280;51107;47.652;19.016;2023-02-12T00:08:54;101164.19;;;3.62;90.07
64683;BME280;51107;47.652;19.016;2023-02-12T00:11:26;101153.69;;;3.67;90.57
64683;BME280;51107;47.652;19.016;2023-02-12T00:13:56;101153.59;;;3.68;90.70
64683;BME280;51107;47.652;19.016;2023-02-12T00:16:27;101149.81;;;3.76;90.79
64683;BME280;51107;47.652;19.016;2023-02-12T00:18:57;101146.91;;;4.01;89.33
64683;BME280;51107;47.652;19.016;2023-02-12T00:21:27;101155.28;;;3.69;90.89
64683;BME280;51107;47.652;19.016;2023-02-12T00:23:56;101142.56;;;3.84;90.29
64683;BME280;51107;47.652;19.016;2023-02-12T00:26:25;101156.97;;;3.88;90.21
64683;BME280;51107;47.652;19.016;2023-02-12T00:28:54;101158.22;;;4.16;89.26
64683;BME280;51107;47.652;19.016;2023-02-12T00:31:25;101151.25;;;4.18;88.74
64683;BME280;51107;47.652;19.016;2023-02-12T00:33:57;101172.87;;;3.79;90.04
64683;BME280;51107;47.652;19.016;2023-02-12T00:36:28;101167.09;;;3.93;89.54
64683;BME280;51107;47.652;19.016;2023-02-12T00:38:58;101152.00;;;4.02;89.53
64683;BME280;51107;47.652;19.016;2023-02-12T00:41:26;101153.50;;;3.89;90.07
64683;BME280;51107;47.652;19.016;2023-02-12T00:43:54;101146.50;;;3.91;89.97
64683;BME280;51107;47.652;19.016;2023-02-12T00:46:23;101139.09;;;3.85;90.09
64683;BME280;51107;47.652;19.016;2023-02-12T00:48:51;101153.13;;;3.97;89.67
64683;BME280;51107;47.652;19.016;2023-02-12T00:51:20;101144.12;;;3.69;90.42
64683;BME280;51107;47.652;19.016;2023-02-12T00:53:48;101148.44;;;3.68;91.09
64683;BME280;51107;47.652;19.016;2023-02-12T00:56:17;101143.00;;;3.74;91.04
64683;BME280;51107;47.652;19.016;2023-02-12T00:58:48;101144.47;;;3.80;90.81
64683;BME280;51107;47.652;19.016;2023-02-12T01:01:17;101139.75;;;3.71;91.00
64683;BME280;51107;47.652;19.016;2023-02-12T01:03:46;101135.22;;;3.94;90.53
64683;BME280;51107;47.652;19.016;2023-02-12T01:06:14;101136.97;;;3.93;90.66
64683;BME280;51107;47.652;19.016;2023-02-12T01:08:42;101137.88;;;3.92;90.36
64683;BME280;51107;47.652;19.016;2023-02-12T01:11:12;101128.53;;;3.89;90.36
64683;BME280;51107;47.652;19.016;2023-02-12T01:13:40;101128.47;;;3.91;90.01
64683;BME280;51107;47.652;19.016;2023-02-12T01:16:22;101125.69;;;3.96;89.77
64683;BME280;51107;47.652;19.016;2023-02-12T01:18:53;101119.06;;;4.07;89.30
64683;BME280;51107;47.652;19.016;2023-02-12T01:21:26;101104.66;;;4.03;89.22
64683;BME280;51107;47.652;19.016;2023-02-12T01:23:55;101099.75;;;3.99;89.48
64683;BME280;51107;47.652;19.016;2023-02-12T01:26:24;101124.63;;;4.00;89.21
64683;BME280;51107;47.652;19.016;2023-02-12T01:28:56;101119.66;;;3.95;89.22
64683;BME280;51107;47.652;19.016;2023-02-12T01:31:29;101130.59;;;4.00;89.01
64683;BME280;51107;47.652;19.016;2023-02-12T01:33:59;101125.06;;;3.90;89.38
64683;BME280;51107;47.652;19.016;2023-02-12T01:36:28;101123.00;;;3.80;90.63
64683;BME280;51107;47.652;19.016;2023-02-12T01:38:57;101130.53;;;3.84;90.07
64683;BME280;51107;47.652;19.016;2023-02-12T01:41:29;101137.41;;;3.84;89.64
64683;BME280;51107;47.652;19.016;2023-02-12T01:46:35;101121.03;;;3.85;89.62
64683;BME280;51107;47.652;19.016;2023-02-12T01:49:07;101136.00;;;3.96;89.57
64683;BME280;51107;47.652;19.016;2023-02-12T01:51:36;101140.66;;;3.70;90.54
64683;BME280;51107;47.652;19.016;2023-02-12T01:54:07;101129.09;;;3.96;89.65
64683;BME280;51107;47.652;19.016;2023-02-12T01:56:38;101131.13;;;3.89;89.59
64683;BME280;51107;47.652;19.016;2023-02-12T01:59:07;101119.75;;;3.94;89.17
64683;BME280;51107;47.652;19.016;2023-02-12T02:01:35;101125.16;;;4.06;88.79
64683;BME280;51107;47.652;19.016;2023-02-12T02:04:08;101124.53;;;4.01;88.89
64683;BME280;51107;47.652;19.016;2023-02-12T02:06:46;101120.12;;;4.03;88.65
64683;BME280;51107;47.652;19.016;2023-02-12T02:09:18;101126.06;;;4.05;88.83
64683;BME280;51107;47.652;19.016;2023-02-12T02:11:46;101108.31;;;3.99;88.38
64683;BME280;51107;47.652;19.016;2023-02-12T02:14:34;101114.00;;;4.06;88.49
64683;BME280;51107;47.652;19.016;2023-02-12T02:34:02;101110.34;;;4.28;87.10
64683;BME280;51107;47.652;19.016;2023-02-12T02:36:45;101110.81;;;4.18;87.72
64683;BME280;51107;47.652;19.016;2023-02-12T02:40:17;101113.19;;;4.23;87.91
64683;BME280;51107;47.652;19.016;2023-02-12T02:42:29;101103.97;;;4.17;88.23
64683;BME280;51107;47.652;19.016;2023-02-12T02:45:22;101120.00;;;4.24;87.84
64683;BME280;51107;47.652;19.016;2023-02-12T02:47:57;101105.56;;;4.20;87.76
64683;BME280;51107;47.652;19.016;2023-02-12T02:50:28;101115.53;;;4.28;87.58
64683;BME280;51107;47.652;19.016;2023-02-12T02:53:05;101121.66;;;4.25;87.48
64683;BME280;51107;47.652;19.016;2023-02-12T02:55:39;101130.91;;;4.29;87.31
64683;BME280;51107;47.652;19.016;2023-02-12T02:58:13;101116.72;;;4.38;87.05
64683;BME280;51107;47.652;19.016;2023-02-12T03:01:04;101114.16;;;4.20;88.12
64683;BME280;51107;47.652;19.016;2023-02-12T03:03:40;101131.06;;;4.08;88.90
64683;BME280;51107;47.652;19.016;2023-02-12T03:06:26;101116.75;;;4.20;89.01
64683;BME280;51107;47.652;19.016;2023-02-12T03:09:10;101145.41;;;4.14;89.35
64683;BME280;51107;47.652;19.016;2023-02-12T03:11:41;101133.66;;;4.08;89.82
64683;BME280;51107;47.652;19.016;2023-02-12T03:14:26;101144.78;;;4.09;90.20
64683;BME280;51107;47.652;19.016;2023-02-12T03:17:10;101129.19;;;4.12;89.92
64683;BME280;51107;47.652;19.016;2023-02-12T03:19:50;101153.13;;;4.14;89.73
64683;BME280;51107;47.652;19.016;2023-02-12T03:22:22;101153.56;;;4.05;90.13
64683;BME280;51107;47.652;19.016;2023-02-12T03:24:59;101158.47;;;4.11;90.08
64683;BME280;51107;47.652;19.016;2023-02-12T03:27:36;101161.84;;;4.12;90.05
64683;BME280;51107;47.652;19.016;2023-02-12T03:30:07;101163.06;;;4.04;90.55
64683;BME280;51107;47.652;19.016;2023-02-12T03:33:02;101178.00;;;3.98;91.08
64683;BME280;51107;47.652;19.016;2023-02-12T03:35:51;101185.00;;;4.13;90.70
64683;BME280;51107;47.652;19.016;2023-02-12T03:41:05;101182.41;;;3.96;91.53
64683;BME280;51107;47.652;19.016;2023-02-12T03:43:52;101173.22;;;4.07;91.21
64683;BME280;51107;47.652;19.016;2023-02-12T03:46:45;101171.72;;;4.03;91.17
64683;BME280;51107;47.652;19.016;2023-02-12T03:49:37;101181.81;;;4.08;91.22
64683;BME280;51107;47.652;19.016;2023-02-12T03:52:10;101183.47;;;4.09;90.89
64683;BME280;51107;47.652;19.016;2023-02-12T03:54:38;101198.19;;;4.07;90.70
64683;BME280;51107;47.652;19.016;2023-02-12T03:57:10;101188.94;;;4.03;90.51
64683;BME280;51107;47.652;19.016;2023-02-12T03:59:42;101187.72;;;4.10;90.63
64683;BME280;51107;47.652;19.016;2023-02-12T04:02:11;101195.00;;;4.02;91.12
64683;BME280;51107;47.652;19.016;2023-02-12T04:04:40;101203.59;;;4.02;91.13
64683;BME280;51107;47.652;19.016;2023-02-12T04:07:09;101206.16;;;4.02;90.86
64683;BME280;51107;47.652;19.016;2023-02-12T04:09:37;101213.59;;;4.08;90.75
64683;BME280;51107;47.652;19.016;2023-02-12T04:12:14;101224.13;;;4.04;90.80
64683;BME280;51107;47.652;19.016;2023-02-12T04:15:11;101234.84;;;4.14;90.42
64683;BME280;51107;47.652;19.016;2023-02-12T04:18:08;101249.94;;;4.04;91.09
64683;BME280;51107;47.652;19.016;2023-02-12T04:20:52;101255.91;;;4.04;91.43
64683;BME280;51107;47.652;19.016;2023-02-12T04:23:38;101264.34;;;4.08;91.16
64683;BME280;51107;47.652;19.016;2023-02-12T04:28:56;101268.56;;;4.09;90.67
64683;BME280;51107;47.652;19.016;2023-02-12T04:31:49;101267.19;;;4.02;91.04
64683;BME280;51107;47.652;19.016;2023-02-12T04:34:38;101258.41;;;3.87;91.56
64683;BME280;51107;47.652;19.016;2023-02-12T04:38:03;101262.91;;;4.02;90.47
64683;BME280;51107;47.652;19.016;2023-02-12T04:40:38;101274.91;;;4.21;88.40
64683;BME280;51107;47.652;19.016;2023-02-12T04:43:08;101282.50;;;4.24;87.58
64683;BME280;51107;47.652;19.016;2023-02-12T04:45:36;101292.00;;;4.04;88.48
64683;BME280;51107;47.652;19.016;2023-02-12T04:48:05;101303.28;;;4.02;88.49
64683;BME280;51107;47.652;19.016;2023-02-12T04:50:39;101289.72;;;3.98;89.46
64683;BME280;51107;47.652;19.016;2023-02-12T04:53:09;101293.28;;;3.96;90.21
64683;BME280;51107;47.652;19.016;2023-02-12T04:55:37;101304.19;;;4.01;90.35
64683;BME280;51107;47.652;19.016;2023-02-12T04:58:06;101309.22;;;3.85;91.42
64683;BME280;51107;47.652;19.016;2023-02-12T05:00:40;101301.81;;;3.77;91.91
64683;BME280;51107;47.652;19.016;2023-02-12T05:03:08;101316.13;;;3.65;92.57
64683;BME280;51107;47.652;19.016;2023-02-12T05:05:39;101318.69;;;3.65;93.47
64683;BME280;51107;47.652;19.016;2023-02-12T05:08:08;101318.84;;;4.00;93.02
64683;BME280;51107;47.652;19.016;2023-02-12T05:10:36;101326.25;;;4.08;91.89
64683;BME280;51107;47.652;19.016;2023-02-12T05:13:04;101327.22;;;4.05;92.17
64683;BME280;51107;47.652;19.016;2023-02-12T05:15:32;101343.09;;;3.96;92.23
64683;BME280;51107;47.652;19.016;2023-02-12T05:18:00;101317.19;;;3.80;93.14
64683;BME280;51107;47.652;19.016;2023-02-12T05:20:29;101327.34;;;4.02;91.99
64683;BME280;51107;47.652;19.016;2023-02-12T05:22:57;101333.91;;;3.90;92.50
64683;BME280;51107;47.652;19.016;2023-02-12T05:25:26;101347.38;;;4.16;91.47
64683;BME280;51107;47.652;19.016;2023-02-12T05:27:55;101345.47;;;4.20;90.78
64683;BME280;51107;47.652;19.016;2023-02-12T05:30:26;101354.16;;;4.17;90.80
64683;BME280;51107;47.652;19.016;2023-02-12T05:32:55;101347.12;;;4.21;90.49
64683;BME280;51107;47.652;19.016;2023-02-12T05:35:23;101345.19;;;4.07;90.97
64683;BME280;51107;47.652;19.016;2023-02-12T05:37:54;101355.44;;;4.08;91.09
64683;BME280;51107;47.652;19.016;2023-02-12T05:40:23;101367.03;;;4.19;90.98
64683;BME280;51107;47.652;19.016;2023-02-12T05:42:51;101368.19;;;4.12;90.99
64683;BME280;51107;47.652;19.016;2023-02-12T05:45:22;101372.28;;;4.16;91.11
64683;BME280;51107;47.652;19.016;2023-02-12T05:47:55;101362.59;;;4.02;91.56
64683;BME280;51107;47.652;19.016;2023-02-12T05:50:23;101370.62;;;3.96;91.50
64683;BME280;51107;47.652;19.016;2023-02-12T05:52:59;101380.16;;;3.94;92.39
64683;BME280;51107;47.652;19.016;2023-02-12T05:55:28;101381.03;;;3.94;92.35
64683;BME280;51107;47.652;19.016;2023-02-12T05:57:56;101367.06;;;3.79;93.40
64683;BME280;51107;47.652;19.016;2023-02-12T06:00:24;101381.50;;;4.02;92.62
64683;BME280;51107;47.652;19.016;2023-02-12T06:02:55;101391.88;;;3.82;93.59
64683;BME280;51107;47.652;19.016;2023-02-12T06:05:23;101384.91;;;3.63;94.12
64683;BME280;51107;47.652;19.016;2023-02-12T06:07:52;101400.13;;;3.69;94.42
64683;BME280;51107;47.652;19.016;2023-02-12T06:10:23;101406.06;;;3.51;94.81
64683;BME280;51107;47.652;19.016;2023-02-12T06:12:54;101404.50;;;3.47;95.57
64683;BME280;51107;47.652;19.016;2023-02-12T06:15:23;101411.47;;;3.45;95.54
64683;BME280;51107;47.652;19.016;2023-02-12T06:17:51;101419.50;;;3.37;96.31
64683;BME280;51107;47.652;19.016;2023-02-12T06:20:19;101433.75;;;3.66;95.56
64683;BME280;51107;47.652;19.016;2023-02-12T06:22:47;101433.72;;;3.47;95.73
64683;BME280;51107;47.652;19.016;2023-02-12T06:25:15;101431.31;;;3.43;96.40
64683;BME280;51107;47.652;19.016;2023-02-12T06:27:44;101430.66;;;3.37;96.21
64683;BME280;51107;47.652;19.016;2023-02-12T06:30:12;101448.81;;;3.34;96.88
64683;BME280;51107;47.652;19.016;2023-02-12T06:32:41;101450.81;;;3.48;97.23
64683;BME280;51107;47.652;19.016;2023-02-12T06:35:09;101468.34;;;3.61;96.71
64683;BME280;51107;47.652;19.016;2023-02-12T06:37:37;101461.84;;;3.52;96.28
64683;BME280;51107;47.652;19.016;2023-02-12T06:40:06;101460.63;;;3.61;95.78
64683;BME280;51107;47.652;19.016;2023-02-12T06:42:34;101460.63;;;3.81;95.11
64683;BME280;51107;47.652;19.016;2023-02-12T06:45:03;101474.37;;;4.01;93.95
64683;BME280;51107;47.652;19.016;2023-02-12T06:47:32;101470.38;;;4.14;93.66
64683;BME280;51107;47.652;19.016;2023-02-12T06:50:03;101470.41;;;4.33;92.80
64683;BME280;51107;47.652;19.016;2023-02-12T06:52:32;101485.00;;;4.34;91.40
64683;BME280;51107;47.652;19.016;2023-02-12T06:55:06;101483.16;;;4.36;91.93
64683;BME280;51107;47.652;19.016;2023-02-12T06:57:38;101484.66;;;4.61;91.10
64683;BME280;51107;47.652;19.016;2023-02-12T07:00:06;101489.53;;;4.67;91.46
64683;BME280;51107;47.652;19.016;2023-02-12T07:02:35;101490.03;;;4.56;91.12
64683;BME280;51107;47.652;19.016;2023-02-12T07:05:06;101496.09;;;4.74;92.35
64683;BME280;51107;47.652;19.016;2023-02-12T07:07:35;101491.19;;;4.68;90.91
64683;BME280;51107;47.652;19.016;2023-02-12T07:10:03;101501.13;;;4.78;90.85
64683;BME280;51107;47.652;19.016;2023-02-12T07:12:32;101509.00;;;4.74;90.71
64683;BME280;51107;47.652;19.016;2023-02-12T07:15:00;101509.09;;;4.73;90.75
64683;BME280;51107;47.652;19.016;2023-02-12T07:17:29;101497.63;;;4.79;90.55
64683;BME280;51107;47.652;19.016;2023-02-12T07:19:58;101522.66;;;4.76;90.97
64683;BME280;51107;47.652;19.016;2023-02-12T07:22:26;101523.38;;;4.80;89.87
64683;BME280;51107;47.652;19.016;2023-02-12T07:24:54;101527.63;;;4.81;90.06
64683;BME280;51107;47.652;19.016;2023-02-12T07:27:22;101521.69;;;4.98;88.91
64683;BME280;51107;47.652;19.016;2023-02-12T07:29:51;101537.47;;;5.11;88.53
64683;BME280;51107;47.652;19.016;2023-02-12T07:32:19;101519.56;;;5.25;86.60
64683;BME280;51107;47.652;19.016;2023-02-12T07:34:47;101530.53;;;5.31;85.91
64683;BME280;51107;47.652;19.016;2023-02-12T07:37:15;101523.84;;;5.44;86.32
64683;BME280;51107;47.652;19.016;2023-02-12T07:39:50;101522.84;;;5.47;85.53
64683;BME280;51107;47.652;19.016;2023-02-12T07:42:18;101522.97;;;5.62;85.07
64683;BME280;51107;47.652;19.016;2023-02-12T07:44:47;101528.06;;;5.64;85.50
64683;BME280;51107;47.652;19.016;2023-02-12T07:47:15;101540.28;;;5.78;84.23
64683;BME280;51107;47.652;19.016;2023-02-12T07:49:44;101527.00;;;5.86;82.16
64683;BME280;51107;47.652;19.016;2023-02-12T07:52:13;101535.03;;;5.97;81.61
64683;BME280;51107;47.652;19.016;2023-02-12T07:54:41;101536.13;;;6.10;81.01
64683;BME280;51107;47.652;19.016;2023-02-12T07:57:09;101547.19;;;6.48;79.14
64683;BME280;51107;47.652;19.016;2023-02-12T07:59:38;101533.88;;;6.38;78.42
64683;BME280;51107;47.652;19.016;2023-02-12T08:02:08;101545.34;;;6.50;78.90
64683;BME280;51107;47.652;19.016;2023-02-12T08:04:36;101550.31;;;6.70;77.56
64683;BME280;51107;47.652;19.016;2023-02-12T08:07:05;101557.81;;;6.75;78.39
64683;BME280;51107;47.652;19.016;2023-02-12T08:09:33;101553.41;;;6.77;78.89
64683;BME280;51107;47.652;19.016;2023-02-12T08:12:02;101560.94;;;6.97;76.06
64683;BME280;51107;47.652;19.016;2023-02-12T08:14:30;101568.63;;;6.99;77.33
64683;BME280;51107;47.652;19.016;2023-02-12T08:16:58;101564.19;;;7.17;76.65
64683;BME280;51107;47.652;19.016;2023-02-12T08:19:27;101575.53;;;7.46;74.69
64683;BME280;51107;47.652;19.016;2023-02-12T08:21:55;101578.41;;;7.72;72.51
64683;BME280;51107;47.652;19.016;2023-02-12T08:24:24;101571.72;;;7.68;72.64
64683;BME280;51107;47.652;19.016;2023-02-12T08:26:54;101565.63;;;8.14;71.63
64683;BME280;51107;47.652;19.016;2023-02-12T08:29:25;101574.91;;;8.18;70.61
64683;BME280;51107;47.652;19.016;2023-02-12T08:31:56;101581.84;;;8.62;67.18
64683;BME280;51107;47.652;19.016;2023-02-12T08:34:28;101586.13;;;9.20;65.18
64683;BME280;51107;47.652;19.016;2023-02-12T08:36:57;101589.19;;;9.54;65.33
64683;BME280;51107;47.652;19.016;2023-02-12T08:39:27;101582.81;;;9.98;61.53
64683;BME280;51107;47.652;19.016;2023-02-12T08:41:58;101583.63;;;9.98;60.51
64683;BME280;51107;47.652;19.016;2023-02-12T08:44:27;101594.47;;;10.05;60.76
64683;BME280;51107;47.652;19.016;2023-02-12T08:46:56;101585.91;;;9.77;62.95
64683;BME280;51107;47.652;19.016;2023-02-12T08:49:27;101589.72;;;10.12;60.76
64683;BME280;51107;47.652;19.016;2023-02-12T08:51:58;101597.41;;;10.13;59.37
64683;BME280;51107;47.652;19.016;2023-02-12T08:54:28;101602.56;;;10.66;58.68
64683;BME280;51107;47.652;19.016;2023-02-12T08:56:58;101606.78;;;10.93;57.05
64683;BME280;51107;47.652;19.016;2023-02-12T08:59:27;101610.16;;;11.19;56.67
64683;BME280;51107;47.652;19.016;2023-02-12T09:01:56;101615.12;;;11.35;55.81
64683;BME280;51107;47.652;19.016;2023-02-12T09:04:26;101605.50;;;11.12;55.60
64683;BME280;51107;47.652;19.016;2023-02-12T09:06:55;101609.44;;;11.17;55.46
64683;BME280;51107;47.652;19.016;2023-02-12T09:09:23;101613.37;;;11.47;54.37
64683;BME280;51107;47.652;19.016;2023-02-12T09:11:52;101616.03;;;11.83;55.46
64683;BME280;51107;47.652;19.016;2023-02-12T09:14:20;101616.81;;;11.96;54.16
64683;BME280;51107;47.652;19.016;2023-02-12T09:16:52;101619.87;;;12.37;52.98
64683;BME280;51107;47.652;19.016;2023-02-12T09:19:22;101628.09;;;12.78;51.17
64683;BME280;51107;47.652;19.016;2023-02-12T09:21:54;101637.69;;;12.32;52.96
64683;BME280;51107;47.652;19.016;2023-02-12T09:24:25;101629.53;;;12.59;52.42
64683;BME280;51107;47.652;19.016;2023-02-12T09:26:55;101639.63;;;12.41;51.99
64683;BME280;51107;47.652;19.016;2023-02-12T09:29:23;101636.66;;;12.91;51.03
64683;BME280;51107;47.652;19.016;2023-02-12T09:31:52;101643.28;;;13.73;50.06
64683;BME280;51107;47.652;19.016;2023-02-12T09:34:20;101645.97;;;13.50;49.52
64683;BME280;51107;47.652;19.016;2023-02-12T09:36:48;101640.25;;;13.89;48.95
64683;BME280;51107;47.652;19.016;2023-02-12T09:39:17;101642.22;;;13.20;48.88
64683;BME280;51107;47.652;19.016;2023-02-12T09:50:16;101657.81;;;14.19;47.61
64683;BME280;51107;47.652;19.016;2023-02-12T09:52:50;101659.44;;;14.10;45.70
64683;BME280;51107;47.652;19.016;2023-02-12T09:55:21;101654.69;;;13.39;48.98
64683;BME280;51107;47.652;19.016;2023-02-12T09:57:53;101654.94;;;13.69;49.48
64683;BME280;51107;47.652;19.016;2023-02-12T10:02:52;101646.81;;;13.83;49.14
64683;BME280;51107;47.652;19.016;2023-02-12T10:05:26;101657.63;;;14.53;47.41
64683;BME280;51107;47.652;19.016;2023-02-12T10:13:35;101661.38;;;12.64;50.07
64683;BME280;51107;47.652;19.016;2023-02-12T10:19:07;101666.97;;;14.04;47.05
64683;BME280;51107;47.652;19.016;2023-02-12T10:27:40;101686.12;;;13.17;48.23
64683;BME280;51107;47.652;19.016;2023-02-12T10:30:28;101676.56;;;13.50;48.55
64683;BME280;51107;47.652;19.016;2023-02-12T10:33:03;101690.47;;;13.62;49.10
64683;BME280;51107;47.652;19.016;2023-02-12T10:35:34;101691.34;;;12.94;49.25
64683;BME280;51107;47.652;19.016;2023-02-12T10:38:20;101702.50;;;12.85;48.80
64683;BME280;51107;47.652;19.016;2023-02-12T10:40:50;101684.41;;;12.48;51.03
64683;BME280;51107;47.652;19.016;2023-02-12T10:43:18;101691.09;;;11.92;51.15
64683;BME280;51107;47.652;19.016;2023-02-12T10:45:46;101693.84;;;11.53;52.55
64683;BME280;51107;47.652;19.016;2023-02-12T10:48:20;101684.75;;;11.22;53.64
64683;BME280;51107;47.652;19.016;2023-02-12T10:53:39;101683.25;;;11.31;52.73
64683;BME280;51107;47.652;19.016;2023-02-12T10:58:58;101684.56;;;11.12;53.46
64683;BME280;51107;47.652;19.016;2023-02-12T11:04:00;101686.69;;;10.94;53.84
64683;BME280;51107;47.652;19.016;2023-02-12T11:07:05;101687.00;;;10.90;54.06
64683;BME280;51107;47.652;19.016;2023-02-12T11:09:43;101693.56;;;10.69;54.58
64683;BME280;51107;47.652;19.016;2023-02-12T11:12:49;101696.69;;;10.49;55.38
64683;BME280;51107;47.652;19.016;2023-02-12T11:15:19;101700.22;;;10.48;55.41
64683;BME280;51107;47.652;19.016;2023-02-12T11:17:56;101701.44;;;10.29;56.25
64683;BME280;51107;47.652;19.016;2023-02-12T11:20:59;101694.69;;;10.12;56.86
64683;BME280;51107;47.652;19.016;2023-02-12T11:23:30;101687.53;;;10.69;55.95
64683;BME280;51107;47.652;19.016;2023-02-12T11:28:58;101702.00;;;10.60;55.02
64683;BME280;51107;47.652;19.016;2023-02-12T11:31:32;101699.06;;;10.39;54.77
64683;BME280;51107;47.652;19.016;2023-02-12T11:36:43;101701.78;;;10.10;55.91
64683;BME280;51107;47.652;19.016;2023-02-12T11:44:47;101693.94;;;9.97;57.08
64683;BME280;51107;47.652;19.016;2023-02-12T11:47:29;101694.22;;;10.20;56.14
64683;BME280;51107;47.652;19.016;2023-02-12T11:50:01;101699.53;;;9.64;56.24
64683;BME280;51107;47.652;19.016;2023-02-12T11:52:34;101696.75;;;9.67;57.68
64683;BME280;51107;47.652;19.016;2023-02-12T11:55:26;101691.37;;;10.10;57.42
64683;BME280;51107;47.652;19.016;2023-02-12T11:58:12;101689.06;;;10.71;56.07
64683;BME280;51107;47.652;19.016;2023-02-12T12:00:45;101684.94;;;11.32;55.18
64683;BME280;51107;47.652;19.016;2023-02-12T12:03:21;101684.03;;;11.57;53.68
64683;BME280;51107;47.652;19.016;2023-02-12T12:05:53;101680.22;;;10.87;52.16
64683;BME280;51107;47.652;19.016;2023-02-12T12:08:28;101686.81;;;10.27;53.73
64683;BME280;51107;47.652;19.016;2023-02-12T12:11:06;101692.09;;;10.12;52.89
64683;BME280;51107;47.652;19.016;2023-02-12T12:14:08;101695.94;;;10.07;54.10
64683;BME280;51107;47.652;19.016;2023-02-12T12:16:52;101683.34;;;9.73;54.96
64683;BME280;51107;47.652;19.016;2023-02-12T12:19:58;101680.81;;;9.44;54.32
64683;BME280;51107;47.652;19.016;2023-02-12T12:25:22;101685.88;;;9.60;56.80
64683;BME280;51107;47.652;19.016;2023-02-12T12:33:14;101669.47;;;9.45;58.02
64683;BME280;51107;47.652;19.016;2023-02-12T12:35:59;101666.63;;;9.35;55.74
64683;BME280;51107;47.652;19.016;2023-02-12T12:38:41;101662.12;;;9.38;57.49
64683;BME280;51107;47.652;19.016;2023-02-12T12:55:20;101665.09;;;9.46;59.63
64683;BME280;51107;47.652;19.016;2023-02-12T13:01:05;101668.91;;;9.55;57.44
64683;BME280;51107;47.652;19.016;2023-02-12T13:10:11;101669.59;;;9.29;57.31
64683;BME280;51107;47.652;19.016;2023-02-12T13:12:48;101661.16;;;9.26;58.37
64683;BME280;51107;47.652;19.016;2023-02-12T13:15:35;101659.12;;;9.16;58.39
64683;BME280;51107;47.652;19.016;2023-02-12T13:21:12;101663.75;;;9.11;58.73
64683;BME280;51107;47.652;19.016;2023-02-12T13:23:48;101654.37;;;9.09;59.40
64683;BME280;51107;47.652;19.016;2023-02-12T13:26:22;101667.87;;;9.01;58.97
64683;BME280;51107;47.652;19.016;2023-02-12T13:29:07;101665.19;;;9.03;59.62
64683;BME280;51107;47.652;19.016;2023-02-12T13:31:48;101670.47;;;9.01;58.83
64683;BME280;51107;47.652;19.016;2023-02-12T13:34:19;101670.00;;;8.94;60.20
64683;BME280;51107;47.652;19.016;2023-02-12T13:36:50;101672.12;;;8.88;60.34
64683;BME280;51107;47.652;19.016;2023-02-12T13:39:31;101686.53;;;8.79;60.49
64683;BME280;51107;47.652;19.016;2023-02-12T13:53:26;101695.38;;;8.15;64.24
64683;BME280;51107;47.652;19.016;2023-02-12T13:56:26;101690.69;;;8.06;64.13
64683;BME280;51107;47.652;19.016;2023-02-12T13:58:55;101698.28;;;8.09;65.00
64683;BME280;51107;47.652;19.016;2023-02-12T14:01:36;101697.31;;;7.96;64.70
64683;BME280;51107;47.652;19.016;2023-02-12T14:04:32;101695.72;;;7.93;65.34
64683;BME280;51107;47.652;19.016;2023-02-12T14:07:06;101701.84;;;7.92;65.49
64683;BME280;51107;47.652;19.016;2023-02-12T14:10:05;101696.66;;;7.92;65.22
64683;BME280;51107;47.652;19.016;2023-02-12T14:12:36;101689.97;;;7.72;64.83
64683;BME280;51107;47.652;19.016;2023-02-12T14:20:32;101703.03;;;7.71;66.07
64683;BME280;51107;47.652;19.016;2023-02-12T14:23:26;101707.47;;;7.69;66.20
64683;BME280;51107;47.652;19.016;2023-02-12T14:26:05;101696.59;;;7.62;66.25
64683;BME280;51107;47.652;19.016;2023-02-12T14:41:51;101720.09;;;7.59;68.01
64683;BME280;51107;47.652;19.016;2023-02-12T14:46:59;101724.38;;;7.44;67.09
64683;BME280;51107;47.652;19.016;2023-02-12T14:49:34;101715.50;;;7.48;67.90
64683;BME280;51107;47.652;19.016;2023-02-12T14:57:36;101726.59;;;7.34;68.96
64683;BME280;51107;47.652;19.016;2023-02-12T15:02:51;101724.97;;;7.16;69.24
64683;BME280;51107;47.652;19.016;2023-02-12T15:05:23;101721.87;;;7.09;69.25
64683;BME280;51107;47.652;19.016;2023-02-12T15:08:07;101727.38;;;7.03;69.86
64683;BME280;51107;47.652;19.016;2023-02-12T15:10:50;101729.13;;;7.02;70.32
64683;BME280;51107;47.652;19.016;2023-02-12T15:15:58;101733.28;;;6.89;70.79
64683;BME280;51107;47.652;19.016;2023-02-12T15:21:29;101725.63;;;6.86;71.52
64683;BME280;51107;47.652;19.016;2023-02-12T15:24:07;101723.75;;;6.72;71.21
64683;BME280;51107;47.652;19.016;2023-02-12T15:26:40;101731.16;;;6.62;71.87
64683;BME280;51107;47.652;19.016;2023-02-12T15:29:34;101722.00;;;6.55;72.03
64683;BME280;51107;47.652;19.016;2023-02-12T15:32:06;101726.94;;;6.59;72.37
64683;BME280;51107;47.652;19.016;2023-02-12T15:34:36;101722.31;;;6.49;72.19
64683;BME280;51107;47.652;19.016;2023-02-12T15:37:08;101719.88;;;6.45;72.03
64683;BME280;51107;47.652;19.016;2023-02-12T15:39:43;101726.88;;;6.43;71.32
64683;BME280;51107;47.652;19.016;2023-02-12T15:42:31;101729.09;;;6.34;72.29
64683;BME280;51107;47.652;19.016;2023-02-12T15:47:43;101748.63;;;6.22;72.23
64683;BME280;51107;47.652;19.016;2023-02-12T15:50:16;101744.78;;;6.11;72.43
64683;BME280;51107;47.652;19.016;2023-02-12T15:52:46;101746.31;;;6.16;72.33
64683;BME280;51107;47.652;19.016;2023-02-12T15:55:23;101742.16;;;5.94;72.80